createdAt,value
2019-02-06T00:00:26.606Z,43.95
2019-02-06T00:01:23.630Z,43.95
2019-02-06T00:02:23.627Z,43.95
2019-02-06T00:03:23.678Z,44.04
2019-02-06T00:04:23.584Z,43.95
2019-02-06T00:05:23.609Z,43.95
2019-02-06T00:06:23.573Z,43.95
2019-02-06T00:07:23.571Z,44.04
2019-02-06T00:08:23.623Z,43.95
2019-02-06T00:09:23.563Z,43.95
2019-02-06T00:10:23.519Z,44.04
2019-02-06T00:11:23.505Z,44.04
2019-02-06T00:12:23.494Z,44.04
2019-02-06T00:13:23.537Z,44.04
2019-02-06T00:14:23.474Z,44.04
2019-02-06T00:15:23.477Z,44.04
2019-02-06T00:16:23.454Z,44.04
2019-02-06T00:17:23.475Z,44.04
2019-02-06T00:18:23.462Z,44.04
2019-02-06T00:19:23.460Z,44.04
2019-02-06T00:20:23.416Z,44.04
2019-02-06T00:21:23.415Z,44.04
2019-02-06T00:22:23.393Z,44.04
2019-02-06T00:23:23.408Z,44.04
2019-02-06T00:24:23.373Z,44.15
2019-02-06T00:25:23.370Z,44.15
2019-02-06T00:26:23.362Z,44.15
2019-02-06T00:27:23.377Z,44.15
2019-02-06T00:28:23.508Z,44.15
2019-02-06T00:29:23.325Z,44.15
2019-02-06T00:30:23.304Z,44.15
2019-02-06T00:31:23.300Z,44.15
2019-02-06T00:32:23.323Z,44.15
2019-02-06T00:33:23.300Z,44.24
2019-02-06T00:34:23.322Z,44.24
2019-02-06T00:35:25.749Z,44.24
2019-02-06T00:36:23.245Z,44.27
2019-02-06T00:37:23.266Z,44.24
2019-02-06T00:38:23.222Z,44.27
2019-02-06T00:39:23.242Z,44.27
2019-02-06T00:40:23.200Z,44.27
2019-02-06T00:41:23.202Z,44.37
2019-02-06T00:42:23.175Z,44.37
2019-02-06T00:43:23.206Z,44.37
2019-02-06T00:44:23.160Z,44.37
2019-02-06T00:45:23.145Z,44.37
2019-02-06T00:46:23.128Z,44.47
2019-02-06T00:47:23.122Z,44.47
2019-02-06T00:48:23.146Z,44.47
2019-02-06T00:49:23.099Z,44.47
2019-02-06T00:50:23.094Z,44.47
2019-02-06T00:51:23.132Z,44.47
2019-02-06T00:52:23.067Z,44.47
2019-02-06T00:53:23.055Z,44.47
2019-02-06T00:54:23.044Z,44.57
2019-02-06T00:55:23.070Z,44.57
2019-02-06T00:56:23.059Z,44.57
2019-02-06T00:57:23.011Z,44.57
2019-02-06T00:58:23.002Z,44.57
2019-02-06T00:59:22.990Z,44.57
2019-02-06T01:00:23.018Z,44.57
2019-02-06T01:01:23.013Z,44.57
2019-02-06T01:02:22.961Z,44.57
2019-02-06T01:03:22.948Z,44.57
2019-02-06T01:04:22.939Z,44.57
2019-02-06T01:05:22.926Z,44.57
2019-02-06T01:06:22.949Z,44.57
2019-02-06T01:07:22.904Z,44.57
2019-02-06T01:08:22.894Z,44.57
2019-02-06T01:09:22.885Z,44.67
2019-02-06T01:10:22.875Z,44.57
2019-02-06T01:11:22.926Z,44.67
2019-02-06T01:12:22.860Z,44.67
2019-02-06T01:13:22.839Z,44.67
2019-02-06T01:14:22.853Z,44.57
2019-02-06T01:15:22.857Z,44.57
2019-02-06T01:16:22.810Z,44.67
2019-02-06T01:17:25.770Z,44.67
2019-02-06T01:18:22.790Z,44.57
2019-02-06T01:19:22.785Z,44.67
2019-02-06T01:20:22.802Z,44.67
2019-02-06T01:21:22.760Z,44.67
2019-02-06T01:22:22.749Z,44.67
2019-02-06T01:23:22.766Z,44.67
2019-02-06T01:24:22.744Z,44.67
2019-02-06T01:25:22.718Z,44.67
2019-02-06T01:26:22.710Z,44.67
2019-02-06T01:27:22.696Z,44.67
2019-02-06T01:28:22.718Z,44.67
2019-02-06T01:29:22.672Z,44.67
2019-02-06T01:30:22.666Z,44.67
2019-02-06T01:31:22.651Z,44.67
2019-02-06T01:32:22.642Z,44.67
2019-02-06T01:33:22.659Z,44.67
2019-02-06T01:34:22.623Z,44.67
2019-02-06T01:35:22.612Z,44.67
2019-02-06T01:36:22.597Z,44.67
2019-02-06T01:37:22.623Z,44.67
2019-02-06T01:38:22.578Z,44.67
2019-02-06T01:39:22.565Z,44.67
2019-02-06T01:40:22.559Z,44.67
2019-02-06T01:41:22.629Z,44.67
2019-02-06T01:42:22.566Z,44.67
2019-02-06T01:43:22.528Z,44.77
2019-02-06T01:44:22.545Z,44.77
2019-02-06T01:45:22.505Z,44.77
2019-02-06T01:46:22.491Z,44.77
2019-02-06T01:47:22.514Z,44.77
2019-02-06T01:48:22.474Z,44.77
2019-02-06T01:49:22.460Z,44.77
2019-02-06T01:50:22.453Z,44.77
2019-02-06T01:51:22.467Z,44.77
2019-02-06T01:52:22.426Z,44.77
2019-02-06T01:53:22.421Z,44.77
2019-02-06T01:54:22.411Z,44.77
2019-02-06T01:55:22.439Z,44.77
2019-02-06T01:56:22.386Z,44.79
2019-02-06T01:57:22.398Z,44.77
2019-02-06T01:58:22.364Z,44.77
2019-02-06T01:59:22.349Z,44.79
2019-02-06T02:00:22.379Z,44.79
2019-02-06T02:01:22.329Z,44.77
2019-02-06T02:02:22.320Z,44.87
2019-02-06T02:03:22.316Z,44.89
2019-02-06T02:04:22.302Z,44.89
2019-02-06T02:05:22.316Z,44.87
2019-02-06T02:06:22.307Z,44.89
2019-02-06T02:07:22.269Z,44.89
2019-02-06T02:08:22.258Z,44.89
2019-02-06T02:09:22.242Z,44.87
2019-02-06T02:10:22.297Z,44.89
2019-02-06T02:11:22.252Z,44.87
2019-02-06T02:12:22.219Z,44.89
2019-02-06T02:13:22.237Z,44.89
2019-02-06T02:14:22.196Z,44.89
2019-02-06T02:15:22.198Z,44.87
2019-02-06T02:16:22.173Z,44.89
2019-02-06T02:17:22.163Z,44.87
2019-02-06T02:18:22.264Z,44.89
2019-02-06T02:19:22.137Z,44.89
2019-02-06T02:20:22.142Z,44.89
2019-02-06T02:21:22.123Z,44.87
2019-02-06T02:22:22.106Z,44.89
2019-02-06T02:23:22.139Z,44.89
2019-02-06T02:24:22.120Z,44.89
2019-02-06T02:25:22.081Z,44.89
2019-02-06T02:26:22.063Z,44.87
2019-02-06T02:27:22.085Z,44.89
2019-02-06T02:28:22.046Z,44.87
2019-02-06T02:29:22.034Z,44.87
2019-02-06T02:30:22.060Z,44.89
2019-02-06T02:31:22.009Z,44.87
2019-02-06T02:32:22.007Z,44.87
2019-02-06T02:33:21.996Z,44.89
2019-02-06T02:34:22.016Z,44.87
2019-02-06T02:35:21.977Z,44.87
2019-02-06T02:36:21.957Z,44.87
2019-02-06T02:37:21.985Z,44.97
2019-02-06T02:38:21.940Z,44.97
2019-02-06T02:39:21.925Z,44.97
2019-02-06T02:40:21.915Z,44.97
2019-02-06T02:41:21.909Z,44.97
2019-02-06T02:42:21.927Z,44.97
2019-02-06T02:43:21.918Z,44.97
2019-02-06T02:44:21.875Z,44.97
2019-02-06T02:45:21.865Z,44.97
2019-02-06T02:46:21.851Z,44.97
2019-02-06T02:47:21.883Z,44.97
2019-02-06T02:48:21.830Z,44.97
2019-02-06T02:49:21.824Z,44.97
2019-02-06T02:50:21.814Z,44.97
2019-02-06T02:51:21.806Z,44.97
2019-02-06T02:52:21.827Z,44.97
2019-02-06T02:53:21.803Z,44.97
2019-02-06T02:54:21.772Z,44.97
2019-02-06T02:55:21.762Z,44.97
2019-02-06T02:56:21.768Z,44.97
2019-02-06T02:57:21.739Z,44.97
2019-02-06T02:58:21.834Z,44.97
2019-02-06T02:59:21.721Z,44.97
2019-02-06T03:00:21.739Z,44.97
2019-02-06T03:01:21.699Z,44.97
2019-02-06T03:02:21.683Z,44.97
2019-02-06T03:03:21.671Z,44.97
2019-02-06T03:04:21.670Z,44.97
2019-02-06T03:05:21.687Z,45.00
2019-02-06T03:06:28.177Z,44.97
2019-02-06T03:07:22.634Z,44.97
2019-02-06T03:08:21.621Z,45.00
2019-02-06T03:09:21.638Z,44.97
2019-02-06T03:10:21.603Z,45.00
2019-02-06T03:11:21.600Z,45.00
2019-02-06T03:12:21.582Z,44.97
2019-02-06T03:13:21.598Z,45.00
2019-02-06T03:14:21.561Z,44.97
2019-02-06T03:15:21.580Z,45.00
2019-02-06T03:16:21.545Z,45.00
2019-02-06T03:17:21.522Z,45.00
2019-02-06T03:18:21.512Z,45.00
2019-02-06T03:19:21.508Z,45.00
2019-02-06T03:20:21.520Z,45.00
2019-02-06T03:21:21.487Z,45.00
2019-02-06T03:22:21.473Z,45.00
2019-02-06T03:23:21.465Z,45.00
2019-02-06T03:24:21.449Z,45.00
2019-02-06T03:25:21.472Z,44.97
2019-02-06T03:26:21.451Z,45.00
2019-02-06T03:27:21.424Z,45.00
2019-02-06T03:28:21.432Z,45.00
2019-02-06T03:29:21.398Z,45.00
2019-02-06T03:30:21.385Z,45.00
2019-02-06T03:31:21.401Z,45.00
2019-02-06T03:32:21.366Z,45.00
2019-02-06T03:33:21.358Z,45.00
2019-02-06T03:34:21.346Z,45.00
2019-02-06T03:35:21.363Z,45.09
2019-02-06T03:36:21.323Z,45.09
2019-02-06T03:37:21.317Z,45.09
2019-02-06T03:38:21.305Z,45.09
2019-02-06T03:39:21.313Z,45.09
2019-02-06T03:40:21.314Z,45.09
2019-02-06T03:41:21.275Z,45.09
2019-02-06T03:42:21.259Z,45.09
2019-02-06T03:43:21.250Z,45.09
2019-02-06T03:44:21.243Z,45.09
2019-02-06T03:45:21.266Z,45.09
2019-02-06T03:46:21.218Z,45.09
2019-02-06T03:47:21.211Z,45.09
2019-02-06T03:48:21.197Z,45.09
2019-02-06T03:49:21.203Z,45.09
2019-02-06T03:50:21.207Z,45.09
2019-02-06T03:51:21.172Z,45.09
2019-02-06T03:52:21.153Z,45.09
2019-02-06T03:53:21.174Z,45.09
2019-02-06T03:54:21.140Z,45.09
2019-02-06T03:55:21.120Z,45.09
2019-02-06T03:56:21.114Z,45.19
2019-02-06T03:57:21.104Z,45.19
2019-02-06T03:58:21.122Z,45.19
2019-02-06T03:59:21.081Z,45.19
2019-02-06T04:00:21.100Z,45.19
2019-02-06T04:01:21.056Z,45.19
2019-02-06T04:02:21.053Z,45.19
2019-02-06T04:03:21.059Z,45.19
2019-02-06T04:04:21.027Z,45.19
2019-02-06T04:05:21.014Z,45.19
2019-02-06T04:06:21.009Z,45.19
2019-02-06T04:07:20.996Z,45.19
2019-02-06T04:08:21.016Z,45.19
2019-02-06T04:09:20.969Z,45.19
2019-02-06T04:10:20.960Z,45.19
2019-02-06T04:11:20.953Z,45.29
2019-02-06T04:12:20.947Z,45.19
2019-02-06T04:13:20.957Z,45.29
2019-02-06T04:14:20.919Z,45.29
2019-02-06T04:15:20.910Z,45.29
2019-02-06T04:16:20.926Z,45.29
2019-02-06T04:17:20.954Z,45.29
2019-02-06T04:18:20.904Z,45.29
2019-02-06T04:19:20.866Z,45.29
2019-02-06T04:20:20.855Z,45.29
2019-02-06T04:21:20.881Z,45.29
2019-02-06T04:22:20.833Z,45.29
2019-02-06T04:23:20.823Z,45.29
2019-02-06T04:24:20.815Z,45.29
2019-02-06T04:25:20.833Z,45.29
2019-02-06T04:26:20.791Z,45.29
2019-02-06T04:27:20.786Z,45.29
2019-02-06T04:28:20.769Z,45.29
2019-02-06T04:29:20.767Z,45.29
2019-02-06T04:30:20.785Z,45.29
2019-02-06T04:31:20.743Z,45.29
2019-02-06T04:32:23.368Z,45.29
2019-02-06T04:33:20.721Z,45.29
2019-02-06T04:34:20.733Z,45.29
2019-02-06T04:35:20.711Z,45.29
2019-02-06T04:36:20.694Z,45.29
2019-02-06T04:37:20.680Z,45.29
2019-02-06T04:38:20.666Z,45.29
2019-02-06T04:39:20.681Z,45.29
2019-02-06T04:40:20.645Z,45.29
2019-02-06T04:41:20.638Z,45.29
2019-02-06T04:42:20.650Z,45.29
2019-02-06T04:43:20.643Z,45.29
2019-02-06T04:44:20.598Z,45.29
2019-02-06T04:45:20.607Z,45.29
2019-02-06T04:46:20.576Z,45.19
2019-02-06T04:47:20.607Z,45.29
2019-02-06T04:48:20.559Z,45.29
2019-02-06T04:49:20.544Z,45.29
2019-02-06T04:50:20.541Z,45.29
2019-02-06T04:51:20.523Z,45.29
2019-02-06T04:52:20.543Z,45.29
2019-02-06T04:53:20.512Z,45.29
2019-02-06T04:54:20.495Z,45.29
2019-02-06T04:55:20.487Z,45.29
2019-02-06T04:56:20.478Z,45.29
2019-02-06T04:57:20.616Z,45.29
2019-02-06T04:58:20.498Z,45.29
2019-02-06T04:59:20.439Z,45.29
2019-02-06T05:00:20.433Z,45.29
2019-02-06T05:01:20.421Z,45.29
2019-02-06T05:02:20.411Z,45.29
2019-02-06T05:03:20.428Z,45.29
2019-02-06T05:04:20.386Z,45.29
2019-02-06T05:05:20.380Z,45.29
2019-02-06T05:06:20.490Z,45.29
2019-02-06T05:07:20.359Z,45.29
2019-02-06T05:08:20.351Z,45.29
2019-02-06T05:09:20.338Z,45.29
2019-02-06T05:10:20.324Z,45.29
2019-02-06T05:11:20.357Z,45.29
2019-02-06T05:12:20.310Z,45.29
2019-02-06T05:13:20.292Z,45.29
2019-02-06T05:14:20.278Z,45.29
2019-02-06T05:15:20.275Z,45.29
2019-02-06T05:16:20.298Z,45.29
2019-02-06T05:17:20.281Z,45.29
2019-02-06T05:18:20.267Z,45.29
2019-02-06T05:19:20.231Z,45.29
2019-02-06T05:20:20.223Z,45.29
2019-02-06T05:21:20.214Z,45.19
2019-02-06T05:22:20.244Z,45.29
2019-02-06T05:23:20.184Z,45.19
2019-02-06T05:24:20.178Z,45.29
2019-02-06T05:25:20.166Z,45.19
2019-02-06T05:26:20.155Z,45.19
2019-02-06T05:27:20.171Z,45.19
2019-02-06T05:28:20.136Z,45.29
2019-02-06T05:29:20.146Z,45.29
2019-02-06T05:30:20.108Z,45.19
2019-02-06T05:31:20.167Z,45.19
2019-02-06T05:32:20.092Z,45.29
2019-02-06T05:33:20.085Z,45.29
2019-02-06T05:34:20.069Z,45.29
2019-02-06T05:35:20.061Z,45.29
2019-02-06T05:36:20.078Z,45.19
2019-02-06T05:37:31.793Z,45.19
2019-02-06T05:38:21.035Z,45.19
2019-02-06T05:39:20.019Z,45.19
2019-02-06T05:40:20.010Z,45.29
2019-02-06T05:41:20.046Z,45.19
2019-02-06T05:42:19.981Z,45.19
2019-02-06T05:43:19.973Z,45.19
2019-02-06T05:44:19.963Z,45.19
2019-02-06T05:45:19.983Z,45.29
2019-02-06T05:46:19.946Z,45.19
2019-02-06T05:47:19.953Z,45.19
2019-02-06T05:48:19.926Z,45.19
2019-02-06T05:49:19.932Z,45.29
2019-02-06T05:50:19.902Z,45.19
2019-02-06T05:51:19.886Z,45.29
2019-02-06T05:52:19.883Z,45.19
2019-02-06T05:53:19.869Z,45.19
2019-02-06T05:54:19.903Z,45.19
2019-02-06T05:55:19.866Z,45.19
2019-02-06T05:56:19.837Z,45.19
2019-02-06T05:57:19.826Z,45.19
2019-02-06T05:58:19.821Z,45.19
2019-02-06T05:59:19.833Z,45.19
2019-02-06T06:00:19.799Z,45.19
2019-02-06T06:01:19.784Z,45.29
2019-02-06T06:02:19.772Z,45.29
2019-02-06T06:03:19.795Z,45.29
2019-02-06T06:04:19.751Z,45.29
2019-02-06T06:05:19.782Z,45.29
2019-02-06T06:06:19.728Z,45.29
2019-02-06T06:07:19.723Z,45.29
2019-02-06T06:08:19.707Z,45.29
2019-02-06T06:09:19.698Z,45.29
2019-02-06T06:10:19.717Z,45.29
2019-02-06T06:11:19.680Z,45.29
2019-02-06T06:12:19.661Z,45.29
2019-02-06T06:13:19.651Z,45.29
2019-02-06T06:14:19.668Z,45.29
2019-02-06T06:15:19.709Z,45.29
2019-02-06T06:16:19.621Z,45.29
2019-02-06T06:17:19.616Z,45.29
2019-02-06T06:18:21.933Z,45.29
2019-02-06T06:19:19.590Z,45.29
2019-02-06T06:20:19.615Z,45.29
2019-02-06T06:21:19.593Z,45.29
2019-02-06T06:22:19.559Z,45.29
2019-02-06T06:23:19.657Z,45.29
2019-02-06T06:24:19.557Z,45.29
2019-02-06T06:25:19.528Z,45.29
2019-02-06T06:26:19.539Z,45.29
2019-02-06T06:27:19.518Z,45.29
2019-02-06T06:28:19.504Z,45.29
2019-02-06T06:29:19.485Z,45.29
2019-02-06T06:30:19.472Z,45.29
2019-02-06T06:31:19.493Z,45.29
2019-02-06T06:32:19.456Z,45.29
2019-02-06T06:33:19.443Z,45.29
2019-02-06T06:34:19.434Z,45.29
2019-02-06T06:35:19.447Z,45.29
2019-02-06T06:36:19.436Z,45.29
2019-02-06T06:37:19.419Z,45.29
2019-02-06T06:38:19.387Z,45.29
2019-02-06T06:39:19.377Z,45.29
2019-02-06T06:40:19.397Z,45.29
2019-02-06T06:41:19.389Z,45.29
2019-02-06T06:42:19.345Z,45.29
2019-02-06T06:43:19.335Z,45.29
2019-02-06T06:44:19.326Z,45.29
2019-02-06T06:45:19.312Z,45.29
2019-02-06T06:46:19.333Z,45.29
2019-02-06T06:47:19.350Z,45.29
2019-02-06T06:48:19.286Z,45.29
2019-02-06T06:49:19.275Z,45.29
2019-02-06T06:50:19.267Z,45.29
2019-02-06T06:51:19.284Z,45.19
2019-02-06T06:52:19.238Z,45.29
2019-02-06T06:53:19.231Z,45.19
2019-02-06T06:54:19.214Z,45.29
2019-02-06T06:55:19.228Z,45.19
2019-02-06T06:56:19.194Z,45.19
2019-02-06T06:57:19.190Z,45.19
2019-02-06T06:58:19.182Z,45.29
2019-02-06T06:59:19.220Z,45.19
2019-02-06T07:00:19.181Z,45.19
2019-02-06T07:01:19.175Z,45.29
2019-02-06T07:02:19.139Z,45.19
2019-02-06T07:03:19.158Z,45.19
2019-02-06T07:04:19.111Z,45.19
2019-02-06T07:05:19.106Z,45.29
2019-02-06T07:06:19.088Z,45.29
2019-02-06T07:07:19.079Z,45.29
2019-02-06T07:08:19.113Z,45.29
2019-02-06T07:09:19.060Z,45.29
2019-02-06T07:10:19.069Z,45.29
2019-02-06T07:11:19.035Z,45.29
2019-02-06T07:12:19.027Z,45.29
2019-02-06T07:13:19.054Z,45.29
2019-02-06T07:14:19.007Z,45.29
2019-02-06T07:15:18.999Z,45.29
2019-02-06T07:16:18.981Z,45.27
2019-02-06T07:17:18.978Z,45.29
2019-02-06T07:18:19.006Z,45.29
2019-02-06T07:19:18.953Z,45.27
2019-02-06T07:20:18.941Z,45.29
2019-02-06T07:21:18.926Z,45.29
2019-02-06T07:22:18.921Z,45.29
2019-02-06T07:23:18.962Z,45.29
2019-02-06T07:24:18.896Z,45.29
2019-02-06T07:25:18.889Z,45.29
2019-02-06T07:26:18.873Z,45.29
2019-02-06T07:27:20.979Z,45.29
2019-02-06T07:28:18.890Z,45.29
2019-02-06T07:29:18.845Z,45.29
2019-02-06T07:30:18.835Z,45.29
2019-02-06T07:31:18.830Z,45.29
2019-02-06T07:32:18.813Z,45.29
2019-02-06T07:33:18.851Z,45.29
2019-02-06T07:34:18.825Z,45.29
2019-02-06T07:35:18.784Z,45.29
2019-02-06T07:36:18.773Z,45.29
2019-02-06T07:37:18.762Z,45.29
2019-02-06T07:38:24.369Z,45.29
2019-02-06T07:39:19.773Z,45.29
2019-02-06T07:40:18.748Z,45.29
2019-02-06T07:41:18.721Z,45.29
2019-02-06T07:42:18.718Z,45.29
2019-02-06T07:43:18.732Z,45.39
2019-02-06T07:44:18.688Z,45.29
2019-02-06T07:45:18.679Z,45.29
2019-02-06T07:46:18.669Z,45.29
2019-02-06T07:47:18.658Z,45.29
2019-02-06T07:48:18.673Z,45.29
2019-02-06T07:49:18.633Z,45.29
2019-02-06T07:50:18.626Z,45.29
2019-02-06T07:51:18.651Z,45.29
2019-02-06T07:52:18.606Z,45.29
2019-02-06T07:53:18.589Z,45.27
2019-02-06T07:54:18.582Z,45.29
2019-02-06T07:55:18.620Z,45.27
2019-02-06T07:56:18.591Z,45.27
2019-02-06T07:57:18.544Z,45.27
2019-02-06T07:58:18.568Z,45.29
2019-02-06T07:59:18.528Z,45.27
2019-02-06T08:00:18.519Z,45.27
2019-02-06T08:01:18.510Z,45.27
2019-02-06T08:02:18.498Z,45.27
2019-02-06T08:03:18.517Z,45.27
2019-02-06T08:04:18.473Z,45.27
2019-02-06T08:05:18.466Z,45.27
2019-02-06T08:06:18.469Z,45.27
2019-02-06T08:07:18.442Z,45.27
2019-02-06T08:08:18.472Z,45.27
2019-02-06T08:09:18.425Z,45.27
2019-02-06T08:10:18.412Z,45.27
2019-02-06T08:11:18.401Z,45.27
2019-02-06T08:12:18.389Z,45.27
2019-02-06T08:13:18.412Z,45.27
2019-02-06T08:14:18.372Z,45.27
2019-02-06T08:15:18.361Z,45.27
2019-02-06T08:16:18.342Z,45.27
2019-02-06T08:17:18.339Z,45.27
2019-02-06T08:18:18.357Z,45.27
2019-02-06T08:19:18.367Z,45.29
2019-02-06T08:20:18.303Z,45.29
2019-02-06T08:21:18.296Z,45.27
2019-02-06T08:22:18.278Z,45.27
2019-02-06T08:23:18.268Z,45.27
2019-02-06T08:24:18.300Z,45.27
2019-02-06T08:25:18.254Z,45.27
2019-02-06T08:26:18.241Z,45.27
2019-02-06T08:27:18.229Z,45.27
2019-02-06T08:28:18.219Z,45.27
2019-02-06T08:29:18.248Z,45.27
2019-02-06T08:30:18.198Z,45.27
2019-02-06T08:31:18.190Z,45.27
2019-02-06T08:32:18.176Z,45.27
2019-02-06T08:33:18.173Z,45.27
2019-02-06T08:34:18.191Z,45.27
2019-02-06T08:35:18.144Z,45.27
2019-02-06T08:36:18.132Z,45.27
2019-02-06T08:37:18.118Z,45.27
2019-02-06T08:38:18.109Z,45.27
2019-02-06T08:39:18.132Z,45.27
2019-02-06T08:40:18.117Z,45.27
2019-02-06T08:41:18.080Z,45.27
2019-02-06T08:42:18.073Z,45.37
2019-02-06T08:43:18.062Z,45.37
2019-02-06T08:44:18.044Z,45.37
2019-02-06T08:45:18.069Z,45.37
2019-02-06T08:46:18.030Z,45.27
2019-02-06T08:47:18.012Z,45.27
2019-02-06T08:48:18.010Z,45.27
2019-02-06T08:49:17.998Z,45.27
2019-02-06T08:50:18.027Z,45.27
2019-02-06T08:51:17.974Z,45.27
2019-02-06T08:52:17.981Z,45.37
2019-02-06T08:53:17.948Z,45.27
2019-02-06T08:54:20.250Z,45.27
2019-02-06T08:55:17.964Z,45.27
2019-02-06T08:56:17.916Z,45.27
2019-02-06T08:57:17.908Z,45.27
2019-02-06T08:58:17.902Z,45.27
2019-02-06T08:59:17.908Z,45.37
2019-02-06T09:00:17.906Z,45.47
2019-02-06T09:01:17.867Z,45.67
2019-02-06T09:02:17.874Z,46.08
2019-02-06T09:03:17.847Z,46.28
2019-02-06T09:04:17.838Z,46.28
2019-02-06T09:05:17.852Z,46.38
2019-02-06T09:06:17.811Z,46.38
2019-02-06T09:07:17.806Z,46.38
2019-02-06T09:08:17.791Z,46.38
2019-02-06T09:09:17.778Z,46.28
2019-02-06T09:10:17.807Z,46.28
2019-02-06T09:11:17.761Z,46.38
2019-02-06T09:12:17.753Z,46.38
2019-02-06T09:13:17.748Z,46.48
2019-02-06T09:14:17.730Z,46.58
2019-02-06T09:15:17.755Z,46.78
2019-02-06T09:16:17.731Z,46.78
2019-02-06T09:17:17.702Z,46.68
2019-02-06T09:18:17.691Z,46.68
2019-02-06T09:19:17.693Z,46.68
2019-02-06T09:20:17.692Z,46.58
2019-02-06T09:21:17.653Z,46.58
2019-02-06T09:22:17.640Z,46.58
2019-02-06T09:23:17.634Z,46.48
2019-02-06T09:24:17.624Z,46.48
2019-02-06T09:25:17.667Z,46.48
2019-02-06T09:26:17.597Z,46.48
2019-02-06T09:27:17.598Z,46.38
2019-02-06T09:28:17.584Z,46.38
2019-02-06T09:29:17.570Z,46.38
2019-02-06T09:30:17.606Z,46.38
2019-02-06T09:31:17.548Z,46.38
2019-02-06T09:32:17.540Z,46.38
2019-02-06T09:33:17.524Z,46.38
2019-02-06T09:34:17.520Z,46.28
2019-02-06T09:35:17.534Z,46.28
2019-02-06T09:36:17.491Z,46.28
2019-02-06T09:37:17.481Z,46.28
2019-02-06T09:38:17.495Z,46.28
2019-02-06T09:39:17.462Z,46.28
2019-02-06T09:40:17.455Z,46.28
2019-02-06T09:41:17.448Z,46.28
2019-02-06T09:42:17.435Z,46.28
2019-02-06T09:43:17.452Z,46.28
2019-02-06T09:44:17.414Z,46.28
2019-02-06T09:45:17.397Z,46.18
2019-02-06T09:46:17.388Z,46.18
2019-02-06T09:47:17.378Z,46.18
2019-02-06T09:48:17.396Z,46.18
2019-02-06T09:49:17.353Z,46.18
2019-02-06T09:50:17.380Z,46.18
2019-02-06T09:51:19.224Z,46.18
2019-02-06T09:52:17.326Z,46.18
2019-02-06T09:53:17.315Z,46.18
2019-02-06T09:54:17.301Z,46.18
2019-02-06T09:55:17.334Z,46.18
2019-02-06T09:56:17.279Z,46.18
2019-02-06T09:57:17.276Z,46.18
2019-02-06T09:58:17.281Z,46.18
2019-02-06T09:59:17.369Z,46.18
2019-02-06T10:00:17.279Z,46.18
2019-02-06T10:01:17.227Z,46.18
2019-02-06T10:02:17.248Z,46.08
2019-02-06T10:03:17.215Z,46.18
2019-02-06T10:04:17.197Z,46.18
2019-02-06T10:05:17.188Z,46.18
2019-02-06T10:06:17.177Z,46.18
2019-02-06T10:07:17.201Z,46.18
2019-02-06T10:08:17.157Z,46.18
2019-02-06T10:09:22.965Z,46.18
2019-02-06T10:10:18.132Z,46.18
2019-02-06T10:11:17.129Z,46.18
2019-02-06T10:12:17.114Z,46.18
2019-02-06T10:13:17.107Z,46.18
2019-02-06T10:14:17.123Z,46.28
2019-02-06T10:15:17.080Z,46.28
2019-02-06T10:16:20.075Z,46.28
2019-02-06T10:17:17.061Z,46.28
2019-02-06T10:18:17.048Z,46.28
2019-02-06T10:19:17.067Z,46.28
2019-02-06T10:20:17.030Z,46.36
2019-02-06T10:21:17.021Z,46.38
2019-02-06T10:22:17.004Z,46.36
2019-02-06T10:23:17.045Z,46.36
2019-02-06T10:24:18.949Z,46.46
2019-02-06T10:25:16.971Z,46.36
2019-02-06T10:26:16.969Z,46.36
2019-02-06T10:27:16.951Z,46.36
2019-02-06T10:28:16.997Z,46.36
2019-02-06T10:29:16.963Z,46.14
2019-02-06T10:30:16.925Z,46.14
2019-02-06T10:31:16.926Z,45.94
2019-02-06T10:32:16.901Z,45.83
2019-02-06T10:33:18.934Z,45.61
2019-02-06T10:34:16.915Z,45.51
2019-02-06T10:35:16.869Z,45.31
2019-02-06T10:36:16.889Z,45.29
2019-02-06T10:37:16.843Z,45.29
2019-02-06T10:38:16.869Z,45.18
2019-02-06T10:39:16.829Z,45.09
2019-02-06T10:40:16.811Z,45.09
2019-02-06T10:41:16.805Z,44.99
2019-02-06T10:42:16.791Z,44.96
2019-02-06T10:43:16.810Z,44.87
2019-02-06T10:44:16.783Z,44.87
2019-02-06T10:45:16.762Z,44.76
2019-02-06T10:46:18.282Z,44.76
2019-02-06T10:47:16.765Z,44.67
2019-02-06T10:48:16.734Z,44.67
2019-02-06T10:49:16.720Z,44.67
2019-02-06T10:50:16.705Z,44.56
2019-02-06T10:51:16.702Z,44.56
2019-02-06T10:52:16.727Z,44.56
2019-02-06T10:53:16.676Z,44.56
2019-02-06T10:54:16.675Z,44.56
2019-02-06T10:55:16.649Z,44.56
2019-02-06T10:56:16.642Z,44.56
2019-02-06T10:57:16.671Z,44.56
2019-02-06T10:58:16.672Z,44.67
2019-02-06T10:59:16.610Z,44.67
2019-02-06T11:00:16.602Z,44.67
2019-02-06T11:01:16.592Z,44.67
2019-02-06T11:02:16.604Z,44.67
2019-02-06T11:03:16.591Z,44.67
2019-02-06T11:04:16.554Z,44.67
2019-02-06T11:05:16.548Z,44.67
2019-02-06T11:06:16.537Z,44.67
2019-02-06T11:07:16.531Z,44.76
2019-02-06T11:08:16.572Z,44.76
2019-02-06T11:09:16.503Z,44.76
2019-02-06T11:10:16.488Z,44.76
2019-02-06T11:11:16.482Z,44.76
2019-02-06T11:12:16.469Z,44.87
2019-02-06T11:13:16.505Z,44.76
2019-02-06T11:14:16.458Z,44.76
2019-02-06T11:15:16.435Z,44.87
2019-02-06T11:16:16.430Z,44.96
2019-02-06T11:17:16.421Z,44.96
2019-02-06T11:18:16.440Z,44.96
2019-02-06T11:19:16.398Z,44.96
2019-02-06T11:20:16.384Z,44.96
2019-02-06T11:21:16.374Z,44.96
2019-02-06T11:22:16.365Z,44.96
2019-02-06T11:23:16.380Z,45.06
2019-02-06T11:24:16.340Z,45.06
2019-02-06T11:25:16.335Z,45.17
2019-02-06T11:26:16.345Z,45.26
2019-02-06T11:27:16.307Z,45.26
2019-02-06T11:28:16.303Z,45.37
2019-02-06T11:29:16.297Z,45.47
2019-02-06T11:30:16.280Z,45.57
2019-02-06T11:31:16.298Z,45.57
2019-02-06T11:32:16.254Z,45.69
2019-02-06T11:33:16.241Z,45.69
2019-02-06T11:34:16.237Z,45.57
2019-02-06T11:35:16.219Z,45.59
2019-02-06T11:36:23.899Z,45.59
2019-02-06T11:37:17.226Z,45.39
2019-02-06T11:38:16.193Z,45.39
2019-02-06T11:39:16.185Z,45.39
2019-02-06T11:40:16.189Z,45.29
2019-02-06T11:41:16.191Z,45.29
2019-02-06T11:42:16.146Z,45.18
2019-02-06T11:43:16.163Z,45.18
2019-02-06T11:44:16.125Z,45.18
2019-02-06T11:45:16.119Z,45.18
2019-02-06T11:46:16.147Z,45.18
2019-02-06T11:47:16.092Z,45.09
2019-02-06T11:48:16.084Z,45.09
2019-02-06T11:49:16.068Z,45.09
2019-02-06T11:50:16.086Z,45.09
2019-02-06T11:51:16.084Z,45.09
2019-02-06T11:52:16.038Z,45.09
2019-02-06T11:53:16.063Z,44.99
2019-02-06T11:54:16.032Z,45.09
2019-02-06T11:55:16.003Z,45.09
2019-02-06T11:56:16.000Z,45.09
2019-02-06T11:57:15.992Z,45.09
2019-02-06T11:58:15.998Z,45.09
2019-02-06T11:59:15.964Z,45.09
2019-02-06T12:00:15.949Z,45.09
2019-02-06T12:01:15.938Z,45.09
2019-02-06T12:02:15.961Z,45.09
2019-02-06T12:03:15.928Z,45.09
2019-02-06T12:04:15.948Z,45.09
2019-02-06T12:05:15.901Z,45.09
2019-02-06T12:06:15.884Z,45.09
2019-02-06T12:07:15.875Z,45.09
2019-02-06T12:08:15.874Z,45.09
2019-02-06T12:09:15.991Z,45.09
2019-02-06T12:10:15.841Z,45.18
2019-02-06T12:11:15.830Z,45.18
2019-02-06T12:12:15.826Z,45.09
2019-02-06T12:13:15.821Z,45.09
2019-02-06T12:14:15.831Z,45.18
2019-02-06T12:15:15.793Z,45.18
2019-02-06T12:16:15.874Z,45.18
2019-02-06T12:17:15.764Z,45.18
2019-02-06T12:18:15.760Z,45.18
2019-02-06T12:19:15.750Z,45.09
2019-02-06T12:20:15.735Z,45.09
2019-02-06T12:21:17.943Z,45.09
2019-02-06T12:22:15.718Z,45.18
2019-02-06T12:23:15.708Z,45.18
2019-02-06T12:24:15.724Z,45.09
2019-02-06T12:25:15.683Z,45.09
2019-02-06T12:26:15.670Z,45.09
2019-02-06T12:27:15.662Z,45.09
2019-02-06T12:28:15.690Z,45.09
2019-02-06T12:29:15.642Z,45.09
2019-02-06T12:30:15.692Z,45.09
2019-02-06T12:31:15.615Z,45.09
2019-02-06T12:32:15.643Z,45.09
2019-02-06T12:33:15.598Z,45.09
2019-02-06T12:34:15.593Z,45.09
2019-02-06T12:35:15.615Z,45.09
2019-02-06T12:36:16.013Z,45.09
2019-02-06T12:37:15.551Z,45.18
2019-02-06T12:38:15.604Z,45.18
2019-02-06T12:39:15.532Z,45.18
2019-02-06T12:40:21.533Z,45.18
2019-02-06T12:41:16.526Z,45.18
2019-02-06T12:42:15.547Z,45.18
2019-02-06T12:43:15.488Z,45.18
2019-02-06T12:44:15.518Z,45.18
2019-02-06T12:45:15.494Z,45.18
2019-02-06T12:46:15.475Z,45.18
2019-02-06T12:47:15.453Z,45.18
2019-02-06T12:48:15.435Z,45.18
2019-02-06T12:49:15.490Z,45.18
2019-02-06T12:50:15.481Z,45.18
2019-02-06T12:51:15.399Z,45.18
2019-02-06T12:52:15.425Z,45.18